This is the latest recevied weather packets stored in our database for station/object KG7FOQ-13. If no packets are shown the sender has not sent any weather packets the latest 1 day(s).
| Time | Temp. | Humidity | Pressure | Rain* | Wind** | Luminosity | Snow |
|---|---|---|---|---|---|---|---|
| 1777998173 | 12.78° C | 46% | 1009.9 hPa | 0 mm | 11.62 m/s, 80° | - | - |
| 1777997872 | 12.22° C | 47% | 1009.9 hPa | 0 mm | 10.73 m/s, 77° | - | - |
| 1777997572 | 12.78° C | 46% | 1010 hPa | 0 mm | 11.18 m/s, 59° | - | - |
| 1777997271 | 12.22° C | 45% | 1010.2 hPa | 0 mm | 11.18 m/s, 69° | - | - |
| 1777996971 | 12.22° C | 45% | 1010.2 hPa | 0 mm | 11.18 m/s, 63° | - | - |
| 1777996670 | 11.67° C | 46% | 1010.2 hPa | 0 mm | 9.83 m/s, 52° | - | - |
| 1777996370 | 11.67° C | 48% | 1010.3 hPa | 0 mm | 8.94 m/s, 68° | - | - |
| 1777996069 | 11.67° C | 49% | 1010.2 hPa | 0 mm | 8.94 m/s, 72° | - | - |
| 1777995769 | 12.22° C | 49% | 1010.2 hPa | 0 mm | 6.71 m/s, 51° | - | - |
| 1777995468 | 11.67° C | 46% | 1010.2 hPa | 0 mm | 9.83 m/s, 72° | - | - |
| 1777995167 | 11.67° C | 47% | 1010.2 hPa | 0 mm | 8.94 m/s, 55° | - | - |
| 1777994866 | 11.67° C | 47% | 1010 hPa | 0 mm | 9.83 m/s, 76° | - | - |
| 1777994566 | 11.67° C | 47% | 1010 hPa | 0 mm | 10.28 m/s, 68° | - | - |
| 1777994265 | 11.67° C | 47% | 1010 hPa | 0 mm | 10.28 m/s, 72° | - | - |
| 1777993965 | 11.67° C | 46% | 1009.9 hPa | 0 mm | 12.07 m/s, 86° | - | - |
| 1777993664 | 11.67° C | 47% | 1010 hPa | 0 mm | 8.94 m/s, 52° | - | - |
| 1777993062 | 11.67° C | 52% | 1010 hPa | 0 mm | 8.05 m/s, 60° | - | - |
| 1777992761 | 11.67° C | 51% | 1009.9 hPa | 0 mm | 9.39 m/s, 79° | - | - |
| 1777992460 | 11.11° C | 52% | 1009.9 hPa | 0 mm | 8.49 m/s, 77° | - | - |
| 1777992160 | 11.11° C | 52% | 1009.8 hPa | 0 mm | 8.49 m/s, 70° | - | - |
| 1777991859 | 11.11° C | 52% | 1009.9 hPa | 0 mm | 7.15 m/s, 75° | - | - |
| 1777991558 | 11.67° C | 50% | 1010 hPa | 0 mm | 7.6 m/s, 53° | - | - |
| 1777991258 | 11.67° C | 50% | 1010 hPa | 0 mm | 9.39 m/s, 68° | - | - |
| 1777990956 | 11.67° C | 50% | 1010 hPa | 0 mm | 5.36 m/s, 60° | - | - |
| 1777990655 | 11.67° C | 52% | 1009.9 hPa | 0 mm | 6.71 m/s, 56° | - | - |
* Rain latest hour (hover to see other rain measurements)
** Current wind speed in m/s (hover to see current wind gust speed)